CheckWX is a tool to help pilots better visualize weather data.  It is not intended as a substitute for an official pre-flight weather briefing.

06:12:53 UTC

EGSS TAF
London Stansted Airport
London, United Kingdom
TAF EGSS 220450Z 2206/2312 07007KT CAVOK TEMPO 2206/2208 8000 PROB40 2303/2307 8000

Apr-22@
06:00 UTC

Apr-22 @ 06:00 UTC

Apr-23@
12:00 UTC

Apr-23 @ 12:00 UTC

TAF EGSS 220450Z 2206/2312 07007KT CAVOK
Wind
  • 070° at 7 KTS
Conditions
No significant weather
Cloud Levels
  • No significant clouds

Apr-22@
06:00 UTC

Apr-22 @ 06:00 UTC

Apr-22@
08:00 UTC

Apr-22 @ 08:00 UTC

TEMPO 2206/2208 8000

Temporary

Temporary Changes expected for less than half the time period

Apr-23@
03:00 UTC

Apr-23 @ 03:00 UTC

Apr-23@
07:00 UTC

Apr-23 @ 07:00 UTC

PROB40 2303/2307 8000

Probable - 40% Likelihood

Probable - 40% Likelihood during this time.